sensor_id;sensor_type;location;lat;lon;timestamp;P1;durP1;ratioP1;P2;durP2;ratioP2
69502;SDS011;56704;54.242;12.442;2024-02-26T00:01:03;4.20;;;1.42;;
69502;SDS011;56704;54.242;12.442;2024-02-26T00:03:31;3.93;;;1.33;;
69502;SDS011;56704;54.242;12.442;2024-02-26T00:06:00;4.57;;;1.00;;
69502;SDS011;56704;54.242;12.442;2024-02-26T00:08:27;3.25;;;1.17;;
69502;SDS011;56704;54.242;12.442;2024-02-26T00:10:54;3.30;;;1.15;;
69502;SDS011;56704;54.242;12.442;2024-02-26T00:13:20;4.05;;;1.23;;
69502;SDS011;56704;54.242;12.442;2024-02-26T00:15:47;3.03;;;1.00;;
69502;SDS011;56704;54.242;12.442;2024-02-26T00:18:15;3.33;;;1.20;;
69502;SDS011;56704;54.242;12.442;2024-02-26T00:20:41;5.78;;;1.60;;
69502;SDS011;56704;54.242;12.442;2024-02-26T00:23:09;4.55;;;1.48;;
69502;SDS011;56704;54.242;12.442;2024-02-26T00:25:35;5.10;;;1.23;;
69502;SDS011;56704;54.242;12.442;2024-02-26T00:28:02;3.43;;;1.20;;
69502;SDS011;56704;54.242;12.442;2024-02-26T00:30:29;4.60;;;1.45;;
69502;SDS011;56704;54.242;12.442;2024-02-26T00:32:56;4.57;;;1.48;;
69502;SDS011;56704;54.242;12.442;2024-02-26T00:35:24;4.15;;;1.45;;
69502;SDS011;56704;54.242;12.442;2024-02-26T00:37:50;3.83;;;1.58;;
69502;SDS011;56704;54.242;12.442;2024-02-26T00:40:17;4.73;;;1.60;;
69502;SDS011;56704;54.242;12.442;2024-02-26T00:42:43;3.75;;;1.42;;
69502;SDS011;56704;54.242;12.442;2024-02-26T00:45:12;3.78;;;1.48;;
69502;SDS011;56704;54.242;12.442;2024-02-26T00:47:39;5.72;;;1.30;;
69502;SDS011;56704;54.242;12.442;2024-02-26T00:50:06;4.68;;;1.50;;
69502;SDS011;56704;54.242;12.442;2024-02-26T00:52:35;4.93;;;1.40;;
69502;SDS011;56704;54.242;12.442;2024-02-26T00:55:02;3.88;;;1.48;;
69502;SDS011;56704;54.242;12.442;2024-02-26T00:57:29;4.13;;;1.27;;
69502;SDS011;56704;54.242;12.442;2024-02-26T00:59:55;4.25;;;1.30;;
69502;SDS011;56704;54.242;12.442;2024-02-26T01:02:22;5.22;;;1.20;;
69502;SDS011;56704;54.242;12.442;2024-02-26T01:04:48;3.40;;;1.20;;
69502;SDS011;56704;54.242;12.442;2024-02-26T01:07:15;4.13;;;1.40;;
69502;SDS011;56704;54.242;12.442;2024-02-26T01:09:43;4.47;;;1.60;;
69502;SDS011;56704;54.242;12.442;2024-02-26T01:12:09;3.97;;;1.40;;
69502;SDS011;56704;54.242;12.442;2024-02-26T01:14:36;4.07;;;1.42;;
69502;SDS011;56704;54.242;12.442;2024-02-26T01:17:03;4.63;;;1.30;;
69502;SDS011;56704;54.242;12.442;2024-02-26T01:19:29;3.95;;;1.33;;
69502;SDS011;56704;54.242;12.442;2024-02-26T01:21:56;4.53;;;1.30;;
69502;SDS011;56704;54.242;12.442;2024-02-26T01:24:22;5.22;;;1.20;;
69502;SDS011;56704;54.242;12.442;2024-02-26T01:26:50;4.68;;;1.30;;
69502;SDS011;56704;54.242;12.442;2024-02-26T01:29:17;4.47;;;1.27;;
69502;SDS011;56704;54.242;12.442;2024-02-26T01:31:43;4.70;;;1.20;;
69502;SDS011;56704;54.242;12.442;2024-02-26T01:34:10;4.53;;;1.38;;
69502;SDS011;56704;54.242;12.442;2024-02-26T01:36:36;5.70;;;2.15;;
69502;SDS011;56704;54.242;12.442;2024-02-26T01:39:03;4.45;;;1.48;;
69502;SDS011;56704;54.242;12.442;2024-02-26T01:41:30;4.13;;;1.20;;
69502;SDS011;56704;54.242;12.442;2024-02-26T01:43:58;3.75;;;1.25;;
69502;SDS011;56704;54.242;12.442;2024-02-26T01:46:24;3.63;;;1.23;;
69502;SDS011;56704;54.242;12.442;2024-02-26T01:48:51;3.97;;;1.27;;
69502;SDS011;56704;54.242;12.442;2024-02-26T01:51:18;4.72;;;1.30;;
69502;SDS011;56704;54.242;12.442;2024-02-26T01:53:45;4.87;;;1.20;;
69502;SDS011;56704;54.242;12.442;2024-02-26T01:56:11;4.40;;;1.40;;
69502;SDS011;56704;54.242;12.442;2024-02-26T01:58:39;4.18;;;1.38;;
69502;SDS011;56704;54.242;12.442;2024-02-26T02:01:07;4.72;;;1.33;;
69502;SDS011;56704;54.242;12.442;2024-02-26T02:03:34;4.40;;;1.20;;
69502;SDS011;56704;54.242;12.442;2024-02-26T02:06:02;3.93;;;1.30;;
69502;SDS011;56704;54.242;12.442;2024-02-26T02:08:30;5.95;;;1.23;;
69502;SDS011;56704;54.242;12.442;2024-02-26T02:10:56;4.38;;;1.25;;
69502;SDS011;56704;54.242;12.442;2024-02-26T02:13:25;5.25;;;1.67;;
69502;SDS011;56704;54.242;12.442;2024-02-26T02:15:54;5.18;;;1.80;;
69502;SDS011;56704;54.242;12.442;2024-02-26T02:18:22;4.70;;;1.53;;
69502;SDS011;56704;54.242;12.442;2024-02-26T02:20:50;6.63;;;1.88;;
69502;SDS011;56704;54.242;12.442;2024-02-26T02:23:17;5.63;;;2.00;;
69502;SDS011;56704;54.242;12.442;2024-02-26T02:25:43;4.57;;;1.50;;
69502;SDS011;56704;54.242;12.442;2024-02-26T02:28:10;4.75;;;1.27;;
69502;SDS011;56704;54.242;12.442;2024-02-26T02:30:37;4.70;;;1.40;;
69502;SDS011;56704;54.242;12.442;2024-02-26T02:33:05;4.45;;;1.48;;
69502;SDS011;56704;54.242;12.442;2024-02-26T02:35:31;4.20;;;1.40;;
69502;SDS011;56704;54.242;12.442;2024-02-26T02:37:59;3.15;;;1.15;;
69502;SDS011;56704;54.242;12.442;2024-02-26T02:40:26;3.75;;;1.10;;
69502;SDS011;56704;54.242;12.442;2024-02-26T02:42:52;3.73;;;1.40;;
69502;SDS011;56704;54.242;12.442;2024-02-26T02:45:19;4.63;;;1.50;;
69502;SDS011;56704;54.242;12.442;2024-02-26T02:47:46;3.95;;;1.33;;
69502;SDS011;56704;54.242;12.442;2024-02-26T02:50:12;5.55;;;1.23;;
69502;SDS011;56704;54.242;12.442;2024-02-26T02:52:39;4.38;;;1.50;;
69502;SDS011;56704;54.242;12.442;2024-02-26T02:55:07;4.60;;;1.53;;
69502;SDS011;56704;54.242;12.442;2024-02-26T02:57:34;3.75;;;1.25;;
69502;SDS011;56704;54.242;12.442;2024-02-26T03:00:06;4.70;;;1.48;;
69502;SDS011;56704;54.242;12.442;2024-02-26T03:02:33;4.32;;;1.45;;
69502;SDS011;56704;54.242;12.442;2024-02-26T03:05:00;4.10;;;1.40;;
69502;SDS011;56704;54.242;12.442;2024-02-26T03:07:27;5.03;;;1.17;;
69502;SDS011;56704;54.242;12.442;2024-02-26T03:09:54;2.80;;;1.00;;
69502;SDS011;56704;54.242;12.442;2024-02-26T03:12:22;3.85;;;1.27;;
69502;SDS011;56704;54.242;12.442;2024-02-26T03:14:49;7.60;;;1.70;;
69502;SDS011;56704;54.242;12.442;2024-02-26T03:17:16;4.03;;;1.60;;
69502;SDS011;56704;54.242;12.442;2024-02-26T03:19:43;5.23;;;1.57;;
69502;SDS011;56704;54.242;12.442;2024-02-26T03:22:11;5.15;;;1.75;;
69502;SDS011;56704;54.242;12.442;2024-02-26T03:24:38;4.35;;;1.35;;
69502;SDS011;56704;54.242;12.442;2024-02-26T03:27:05;5.10;;;1.55;;
69502;SDS011;56704;54.242;12.442;2024-02-26T03:29:35;5.35;;;1.63;;
69502;SDS011;56704;54.242;12.442;2024-02-26T03:32:02;3.97;;;1.13;;
69502;SDS011;56704;54.242;12.442;2024-02-26T03:34:29;3.33;;;1.10;;
69502;SDS011;56704;54.242;12.442;2024-02-26T03:36:56;4.30;;;1.50;;
69502;SDS011;56704;54.242;12.442;2024-02-26T03:39:22;4.60;;;1.42;;
69502;SDS011;56704;54.242;12.442;2024-02-26T03:41:49;5.28;;;1.30;;
69502;SDS011;56704;54.242;12.442;2024-02-26T03:44:15;4.10;;;1.37;;
69502;SDS011;56704;54.242;12.442;2024-02-26T03:46:43;4.75;;;1.65;;
69502;SDS011;56704;54.242;12.442;2024-02-26T03:49:10;3.38;;;1.35;;
69502;SDS011;56704;54.242;12.442;2024-02-26T03:51:37;4.05;;;1.17;;
69502;SDS011;56704;54.242;12.442;2024-02-26T03:54:03;4.28;;;1.35;;
69502;SDS011;56704;54.242;12.442;2024-02-26T03:56:30;5.57;;;1.20;;
69502;SDS011;56704;54.242;12.442;2024-02-26T03:58:57;3.53;;;1.17;;
69502;SDS011;56704;54.242;12.442;2024-02-26T04:01:24;4.47;;;1.38;;
69502;SDS011;56704;54.242;12.442;2024-02-26T04:03:52;5.03;;;1.33;;
69502;SDS011;56704;54.242;12.442;2024-02-26T04:06:19;3.03;;;1.10;;
69502;SDS011;56704;54.242;12.442;2024-02-26T04:08:46;5.40;;;1.40;;
69502;SDS011;56704;54.242;12.442;2024-02-26T04:11:12;4.45;;;1.30;;
69502;SDS011;56704;54.242;12.442;2024-02-26T04:13:42;4.43;;;1.50;;
69502;SDS011;56704;54.242;12.442;2024-02-26T04:16:10;3.60;;;1.23;;
69502;SDS011;56704;54.242;12.442;2024-02-26T04:18:37;4.55;;;1.52;;
69502;SDS011;56704;54.242;12.442;2024-02-26T04:21:05;3.63;;;1.27;;
69502;SDS011;56704;54.242;12.442;2024-02-26T04:23:32;4.43;;;1.52;;
69502;SDS011;56704;54.242;12.442;2024-02-26T04:25:58;4.97;;;1.73;;
69502;SDS011;56704;54.242;12.442;2024-02-26T04:28:25;5.30;;;1.33;;
69502;SDS011;56704;54.242;12.442;2024-02-26T04:30:54;5.05;;;1.35;;
69502;SDS011;56704;54.242;12.442;2024-02-26T04:33:20;3.70;;;1.23;;
69502;SDS011;56704;54.242;12.442;2024-02-26T04:35:47;5.47;;;1.42;;
69502;SDS011;56704;54.242;12.442;2024-02-26T04:38:15;4.13;;;1.48;;
69502;SDS011;56704;54.242;12.442;2024-02-26T04:40:42;4.53;;;1.70;;
69502;SDS011;56704;54.242;12.442;2024-02-26T04:43:08;4.70;;;1.90;;
69502;SDS011;56704;54.242;12.442;2024-02-26T04:45:35;4.57;;;1.50;;
69502;SDS011;56704;54.242;12.442;2024-02-26T04:48:01;3.72;;;1.35;;
69502;SDS011;56704;54.242;12.442;2024-02-26T04:50:28;5.07;;;1.70;;
69502;SDS011;56704;54.242;12.442;2024-02-26T04:52:55;4.72;;;1.60;;
69502;SDS011;56704;54.242;12.442;2024-02-26T04:55:23;5.20;;;1.77;;
69502;SDS011;56704;54.242;12.442;2024-02-26T04:57:49;4.13;;;1.40;;
69502;SDS011;56704;54.242;12.442;2024-02-26T05:00:17;4.60;;;1.70;;
69502;SDS011;56704;54.242;12.442;2024-02-26T05:02:44;5.63;;;1.80;;
69502;SDS011;56704;54.242;12.442;2024-02-26T05:05:11;4.68;;;1.40;;
69502;SDS011;56704;54.242;12.442;2024-02-26T05:07:41;4.43;;;1.60;;
69502;SDS011;56704;54.242;12.442;2024-02-26T05:10:08;5.27;;;1.47;;
69502;SDS011;56704;54.242;12.442;2024-02-26T05:12:36;4.88;;;1.48;;
69502;SDS011;56704;54.242;12.442;2024-02-26T05:15:04;4.88;;;1.63;;
69502;SDS011;56704;54.242;12.442;2024-02-26T05:17:31;5.35;;;1.70;;
69502;SDS011;56704;54.242;12.442;2024-02-26T05:19:57;4.90;;;1.80;;
69502;SDS011;56704;54.242;12.442;2024-02-26T05:22:24;4.90;;;1.67;;
69502;SDS011;56704;54.242;12.442;2024-02-26T05:24:51;5.30;;;1.73;;
69502;SDS011;56704;54.242;12.442;2024-02-26T05:27:17;3.78;;;1.45;;
69502;SDS011;56704;54.242;12.442;2024-02-26T05:29:45;5.50;;;1.58;;
69502;SDS011;56704;54.242;12.442;2024-02-26T05:32:12;4.97;;;1.58;;
69502;SDS011;56704;54.242;12.442;2024-02-26T05:34:38;3.13;;;1.23;;
69502;SDS011;56704;54.242;12.442;2024-02-26T05:37:06;5.07;;;1.98;;
69502;SDS011;56704;54.242;12.442;2024-02-26T05:39:33;5.53;;;1.73;;
69502;SDS011;56704;54.242;12.442;2024-02-26T05:42:00;6.90;;;1.95;;
69502;SDS011;56704;54.242;12.442;2024-02-26T05:44:26;4.93;;;1.63;;
69502;SDS011;56704;54.242;12.442;2024-02-26T05:46:54;6.43;;;1.70;;
69502;SDS011;56704;54.242;12.442;2024-02-26T05:49:21;6.32;;;1.75;;
69502;SDS011;56704;54.242;12.442;2024-02-26T05:51:48;5.65;;;1.75;;
69502;SDS011;56704;54.242;12.442;2024-02-26T05:54:14;6.40;;;1.85;;
69502;SDS011;56704;54.242;12.442;2024-02-26T05:56:41;4.90;;;1.88;;
69502;SDS011;56704;54.242;12.442;2024-02-26T05:59:07;5.03;;;1.70;;
69502;SDS011;56704;54.242;12.442;2024-02-26T06:01:34;5.07;;;2.03;;
69502;SDS011;56704;54.242;12.442;2024-02-26T06:04:02;5.32;;;1.60;;
69502;SDS011;56704;54.242;12.442;2024-02-26T06:06:29;4.60;;;1.52;;
69502;SDS011;56704;54.242;12.442;2024-02-26T06:08:55;5.93;;;1.70;;
69502;SDS011;56704;54.242;12.442;2024-02-26T06:11:22;5.87;;;1.90;;
69502;SDS011;56704;54.242;12.442;2024-02-26T06:13:48;4.97;;;1.98;;
69502;SDS011;56704;54.242;12.442;2024-02-26T06:16:15;6.35;;;2.22;;
69502;SDS011;56704;54.242;12.442;2024-02-26T06:18:42;5.60;;;2.03;;
69502;SDS011;56704;54.242;12.442;2024-02-26T06:21:10;6.70;;;1.95;;
69502;SDS011;56704;54.242;12.442;2024-02-26T06:23:37;6.00;;;1.93;;
69502;SDS011;56704;54.242;12.442;2024-02-26T06:26:07;6.25;;;2.00;;
69502;SDS011;56704;54.242;12.442;2024-02-26T06:28:36;7.22;;;2.25;;
69502;SDS011;56704;54.242;12.442;2024-02-26T06:31:05;5.43;;;1.83;;
69502;SDS011;56704;54.242;12.442;2024-02-26T06:33:32;5.35;;;2.00;;
69502;SDS011;56704;54.242;12.442;2024-02-26T06:35:59;7.00;;;1.87;;
69502;SDS011;56704;54.242;12.442;2024-02-26T06:38:29;6.20;;;2.20;;
69502;SDS011;56704;54.242;12.442;2024-02-26T06:40:56;5.95;;;2.22;;
69502;SDS011;56704;54.242;12.442;2024-02-26T06:43:23;6.47;;;2.40;;
69502;SDS011;56704;54.242;12.442;2024-02-26T06:45:49;5.18;;;1.83;;
69502;SDS011;56704;54.242;12.442;2024-02-26T06:48:16;5.97;;;2.40;;
69502;SDS011;56704;54.242;12.442;2024-02-26T06:50:42;6.43;;;2.30;;
69502;SDS011;56704;54.242;12.442;2024-02-26T06:53:09;4.50;;;1.80;;
69502;SDS011;56704;54.242;12.442;2024-02-26T06:55:37;4.57;;;1.50;;
69502;SDS011;56704;54.242;12.442;2024-02-26T06:58:05;4.97;;;1.65;;
69502;SDS011;56704;54.242;12.442;2024-02-26T07:00:32;4.27;;;1.53;;
69502;SDS011;56704;54.242;12.442;2024-02-26T07:02:58;4.95;;;1.50;;
69502;SDS011;56704;54.242;12.442;2024-02-26T07:05:26;5.18;;;1.70;;
69502;SDS011;56704;54.242;12.442;2024-02-26T07:07:53;6.45;;;2.10;;
69502;SDS011;56704;54.242;12.442;2024-02-26T07:10:20;5.53;;;1.60;;
69502;SDS011;56704;54.242;12.442;2024-02-26T07:12:47;4.90;;;1.40;;
69502;SDS011;56704;54.242;12.442;2024-02-26T07:15:14;5.72;;;1.63;;
69502;SDS011;56704;54.242;12.442;2024-02-26T07:17:41;4.43;;;1.80;;
69502;SDS011;56704;54.242;12.442;2024-02-26T07:20:12;5.20;;;1.40;;
69502;SDS011;56704;54.242;12.442;2024-02-26T07:22:39;4.95;;;1.77;;
69502;SDS011;56704;54.242;12.442;2024-02-26T07:25:07;4.03;;;1.50;;
69502;SDS011;56704;54.242;12.442;2024-02-26T07:27:37;5.57;;;1.60;;
69502;SDS011;56704;54.242;12.442;2024-02-26T07:30:05;4.82;;;1.73;;
69502;SDS011;56704;54.242;12.442;2024-02-26T07:32:33;5.10;;;1.48;;
69502;SDS011;56704;54.242;12.442;2024-02-26T07:34:59;5.28;;;1.98;;
69502;SDS011;56704;54.242;12.442;2024-02-26T07:37:26;5.80;;;1.87;;
69502;SDS011;56704;54.242;12.442;2024-02-26T07:39:53;4.90;;;1.60;;
69502;SDS011;56704;54.242;12.442;2024-02-26T07:42:19;6.32;;;1.80;;
69502;SDS011;56704;54.242;12.442;2024-02-26T07:44:46;5.40;;;1.45;;
69502;SDS011;56704;54.242;12.442;2024-02-26T07:47:14;5.90;;;2.05;;
69502;SDS011;56704;54.242;12.442;2024-02-26T07:49:40;5.10;;;1.93;;
69502;SDS011;56704;54.242;12.442;2024-02-26T07:52:07;5.18;;;2.03;;
69502;SDS011;56704;54.242;12.442;2024-02-26T07:54:34;5.43;;;2.10;;
69502;SDS011;56704;54.242;12.442;2024-02-26T07:57:00;5.38;;;1.98;;
69502;SDS011;56704;54.242;12.442;2024-02-26T07:59:30;5.03;;;2.08;;
69502;SDS011;56704;54.242;12.442;2024-02-26T08:01:57;6.40;;;2.63;;
69502;SDS011;56704;54.242;12.442;2024-02-26T08:04:24;7.13;;;2.90;;
69502;SDS011;56704;54.242;12.442;2024-02-26T08:06:51;6.75;;;2.53;;
69502;SDS011;56704;54.242;12.442;2024-02-26T08:09:18;7.85;;;2.58;;
69502;SDS011;56704;54.242;12.442;2024-02-26T08:11:45;7.07;;;2.85;;
69502;SDS011;56704;54.242;12.442;2024-02-26T08:14:11;9.60;;;3.93;;
69502;SDS011;56704;54.242;12.442;2024-02-26T08:16:38;8.45;;;3.85;;
69502;SDS011;56704;54.242;12.442;2024-02-26T08:19:05;8.55;;;3.33;;
69502;SDS011;56704;54.242;12.442;2024-02-26T08:21:33;7.68;;;2.95;;
69502;SDS011;56704;54.242;12.442;2024-02-26T08:24:01;7.82;;;3.50;;
69502;SDS011;56704;54.242;12.442;2024-02-26T08:26:28;5.77;;;2.43;;
69502;SDS011;56704;54.242;12.442;2024-02-26T08:28:55;5.78;;;2.40;;
69502;SDS011;56704;54.242;12.442;2024-02-26T08:31:22;7.53;;;2.92;;
69502;SDS011;56704;54.242;12.442;2024-02-26T08:33:49;8.90;;;2.80;;
69502;SDS011;56704;54.242;12.442;2024-02-26T08:36:16;7.50;;;2.70;;
69502;SDS011;56704;54.242;12.442;2024-02-26T08:38:44;7.20;;;2.80;;
69502;SDS011;56704;54.242;12.442;2024-02-26T08:41:10;6.97;;;3.03;;
69502;SDS011;56704;54.242;12.442;2024-02-26T08:43:38;7.65;;;3.58;;
69502;SDS011;56704;54.242;12.442;2024-02-26T08:46:05;7.13;;;3.45;;
69502;SDS011;56704;54.242;12.442;2024-02-26T08:48:34;7.45;;;3.25;;
69502;SDS011;56704;54.242;12.442;2024-02-26T08:51:04;5.83;;;2.63;;
69502;SDS011;56704;54.242;12.442;2024-02-26T08:53:31;5.65;;;2.50;;
69502;SDS011;56704;54.242;12.442;2024-02-26T08:55:59;6.63;;;2.30;;
69502;SDS011;56704;54.242;12.442;2024-02-26T08:58:26;5.25;;;2.45;;
69502;SDS011;56704;54.242;12.442;2024-02-26T09:00:53;6.20;;;2.75;;
69502;SDS011;56704;54.242;12.442;2024-02-26T09:03:20;5.43;;;2.23;;
69502;SDS011;56704;54.242;12.442;2024-02-26T09:05:46;5.80;;;2.42;;
69502;SDS011;56704;54.242;12.442;2024-02-26T09:08:13;7.03;;;2.78;;
69502;SDS011;56704;54.242;12.442;2024-02-26T09:10:39;8.15;;;2.70;;
69502;SDS011;56704;54.242;12.442;2024-02-26T09:13:08;6.80;;;3.03;;
69502;SDS011;56704;54.242;12.442;2024-02-26T09:15:34;7.63;;;2.70;;
69502;SDS011;56704;54.242;12.442;2024-02-26T09:18:01;5.55;;;2.50;;
69502;SDS011;56704;54.242;12.442;2024-02-26T09:20:28;6.47;;;2.50;;
69502;SDS011;56704;54.242;12.442;2024-02-26T09:22:54;5.75;;;2.55;;
69502;SDS011;56704;54.242;12.442;2024-02-26T09:25:21;5.25;;;2.40;;
69502;SDS011;56704;54.242;12.442;2024-02-26T09:27:47;5.60;;;2.40;;
69502;SDS011;56704;54.242;12.442;2024-02-26T09:30:15;6.10;;;2.50;;
69502;SDS011;56704;54.242;12.442;2024-02-26T09:32:45;7.68;;;2.60;;
69502;SDS011;56704;54.242;12.442;2024-02-26T09:35:13;5.20;;;2.40;;
69502;SDS011;56704;54.242;12.442;2024-02-26T09:37:39;5.82;;;2.67;;
69502;SDS011;56704;54.242;12.442;2024-02-26T09:40:08;4.97;;;2.20;;
69502;SDS011;56704;54.242;12.442;2024-02-26T09:42:37;5.07;;;2.38;;
69502;SDS011;56704;54.242;12.442;2024-02-26T09:45:09;5.35;;;2.28;;
69502;SDS011;56704;54.242;12.442;2024-02-26T09:47:39;4.70;;;2.20;;
69502;SDS011;56704;54.242;12.442;2024-02-26T09:50:06;6.07;;;2.40;;
69502;SDS011;56704;54.242;12.442;2024-02-26T09:52:37;5.83;;;2.00;;
69502;SDS011;56704;54.242;12.442;2024-02-26T09:55:04;4.60;;;2.13;;
69502;SDS011;56704;54.242;12.442;2024-02-26T09:57:33;4.93;;;2.33;;
69502;SDS011;56704;54.242;12.442;2024-02-26T10:00:00;4.93;;;2.10;;
69502;SDS011;56704;54.242;12.442;2024-02-26T10:02:30;5.30;;;2.13;;
69502;SDS011;56704;54.242;12.442;2024-02-26T10:05:00;5.17;;;2.30;;
69502;SDS011;56704;54.242;12.442;2024-02-26T10:07:30;5.00;;;2.28;;
69502;SDS011;56704;54.242;12.442;2024-02-26T10:09:57;5.90;;;2.35;;
69502;SDS011;56704;54.242;12.442;2024-02-26T10:12:24;5.50;;;2.17;;
69502;SDS011;56704;54.242;12.442;2024-02-26T10:14:53;4.00;;;1.90;;
69502;SDS011;56704;54.242;12.442;2024-02-26T10:17:19;6.33;;;2.03;;
69502;SDS011;56704;54.242;12.442;2024-02-26T10:19:46;4.13;;;1.73;;
69502;SDS011;56704;54.242;12.442;2024-02-26T10:22:14;4.68;;;1.90;;
69502;SDS011;56704;54.242;12.442;2024-02-26T10:24:40;4.22;;;1.90;;
69502;SDS011;56704;54.242;12.442;2024-02-26T10:27:07;3.80;;;1.73;;
69502;SDS011;56704;54.242;12.442;2024-02-26T10:29:35;4.37;;;1.60;;
69502;SDS011;56704;54.242;12.442;2024-02-26T10:32:01;5.30;;;1.92;;
69502;SDS011;56704;54.242;12.442;2024-02-26T10:34:28;7.22;;;1.70;;
69502;SDS011;56704;54.242;12.442;2024-02-26T10:36:55;4.22;;;1.90;;
69502;SDS011;56704;54.242;12.442;2024-02-26T10:39:23;3.80;;;1.40;;
69502;SDS011;56704;54.242;12.442;2024-02-26T10:41:49;5.07;;;1.33;;
69502;SDS011;56704;54.242;12.442;2024-02-26T10:44:16;3.55;;;1.35;;
69502;SDS011;56704;54.242;12.442;2024-02-26T10:46:43;3.90;;;1.60;;
69502;SDS011;56704;54.242;12.442;2024-02-26T10:49:13;3.65;;;1.40;;
69502;SDS011;56704;54.242;12.442;2024-02-26T10:51:44;4.13;;;1.80;;
69502;SDS011;56704;54.242;12.442;2024-02-26T10:54:12;4.37;;;1.80;;
69502;SDS011;56704;54.242;12.442;2024-02-26T10:56:43;4.15;;;1.60;;
69502;SDS011;56704;54.242;12.442;2024-02-26T10:59:13;3.83;;;1.70;;
69502;SDS011;56704;54.242;12.442;2024-02-26T11:01:45;3.53;;;1.70;;
69502;SDS011;56704;54.242;12.442;2024-02-26T11:04:12;3.53;;;1.40;;
69502;SDS011;56704;54.242;12.442;2024-02-26T11:06:40;4.13;;;1.50;;
69502;SDS011;56704;54.242;12.442;2024-02-26T11:09:07;4.55;;;1.70;;
69502;SDS011;56704;54.242;12.442;2024-02-26T11:11:38;4.10;;;1.73;;
69502;SDS011;56704;54.242;12.442;2024-02-26T11:14:06;3.10;;;1.10;;
69502;SDS011;56704;54.242;12.442;2024-02-26T11:16:35;4.15;;;1.20;;
69502;SDS011;56704;54.242;12.442;2024-02-26T11:19:03;3.07;;;1.13;;
69502;SDS011;56704;54.242;12.442;2024-02-26T11:21:33;3.63;;;1.50;;
69502;SDS011;56704;54.242;12.442;2024-02-26T11:24:06;3.17;;;1.17;;
69502;SDS011;56704;54.242;12.442;2024-02-26T11:26:34;3.78;;;1.00;;
69502;SDS011;56704;54.242;12.442;2024-02-26T11:29:06;3.42;;;1.10;;
69502;SDS011;56704;54.242;12.442;2024-02-26T11:31:36;3.37;;;0.90;;
69502;SDS011;56704;54.242;12.442;2024-02-26T11:34:04;2.80;;;0.85;;
69502;SDS011;56704;54.242;12.442;2024-02-26T11:36:32;2.83;;;1.00;;
69502;SDS011;56704;54.242;12.442;2024-02-26T11:38:59;3.55;;;1.40;;
69502;SDS011;56704;54.242;12.442;2024-02-26T11:41:26;3.75;;;1.60;;
69502;SDS011;56704;54.242;12.442;2024-02-26T11:43:57;3.97;;;1.77;;
69502;SDS011;56704;54.242;12.442;2024-02-26T11:46:27;3.33;;;1.30;;
69502;SDS011;56704;54.242;12.442;2024-02-26T11:48:58;3.90;;;1.40;;
69502;SDS011;56704;54.242;12.442;2024-02-26T11:51:26;4.15;;;1.75;;
69502;SDS011;56704;54.242;12.442;2024-02-26T11:53:54;3.78;;;1.70;;
69502;SDS011;56704;54.242;12.442;2024-02-26T11:56:24;3.67;;;1.43;;
69502;SDS011;56704;54.242;12.442;2024-02-26T11:58:58;4.47;;;1.95;;
69502;SDS011;56704;54.242;12.442;2024-02-26T12:01:36;3.90;;;1.90;;
69502;SDS011;56704;54.242;12.442;2024-02-26T12:04:16;4.10;;;1.60;;
69502;SDS011;56704;54.242;12.442;2024-02-26T12:06:45;6.32;;;2.25;;
69502;SDS011;56704;54.242;12.442;2024-02-26T12:09:13;5.07;;;1.80;;
69502;SDS011;56704;54.242;12.442;2024-02-26T12:11:56;4.75;;;1.60;;
69502;SDS011;56704;54.242;12.442;2024-02-26T12:14:25;3.75;;;1.55;;
69502;SDS011;56704;54.242;12.442;2024-02-26T12:16:53;3.40;;;1.50;;
69502;SDS011;56704;54.242;12.442;2024-02-26T12:19:22;4.80;;;1.65;;
69502;SDS011;56704;54.242;12.442;2024-02-26T12:21:50;3.90;;;1.30;;
69502;SDS011;56704;54.242;12.442;2024-02-26T12:24:18;4.90;;;1.27;;
69502;SDS011;56704;54.242;12.442;2024-02-26T12:26:46;5.00;;;1.60;;
69502;SDS011;56704;54.242;12.442;2024-02-26T12:29:12;4.88;;;1.52;;
69502;SDS011;56704;54.242;12.442;2024-02-26T12:31:39;5.18;;;1.88;;
69502;SDS011;56704;54.242;12.442;2024-02-26T12:34:07;9.50;;;3.17;;
69502;SDS011;56704;54.242;12.442;2024-02-26T12:36:35;10.80;;;3.55;;
69502;SDS011;56704;54.242;12.442;2024-02-26T12:39:03;4.82;;;1.85;;
69502;SDS011;56704;54.242;12.442;2024-02-26T12:41:30;5.65;;;1.65;;
69502;SDS011;56704;54.242;12.442;2024-02-26T12:43:57;3.47;;;1.40;;
69502;SDS011;56704;54.242;12.442;2024-02-26T12:46:24;3.70;;;1.33;;
69502;SDS011;56704;54.242;12.442;2024-02-26T12:48:51;4.10;;;1.50;;
69502;SDS011;56704;54.242;12.442;2024-02-26T12:51:20;3.70;;;1.60;;
69502;SDS011;56704;54.242;12.442;2024-02-26T12:53:47;3.97;;;1.27;;
69502;SDS011;56704;54.242;12.442;2024-02-26T12:56:17;3.92;;;1.65;;
69502;SDS011;56704;54.242;12.442;2024-02-26T12:58:44;4.43;;;1.67;;
69502;SDS011;56704;54.242;12.442;2024-02-26T13:01:13;4.45;;;1.80;;
69502;SDS011;56704;54.242;12.442;2024-02-26T13:03:41;6.10;;;2.47;;
69502;SDS011;56704;54.242;12.442;2024-02-26T13:06:09;6.07;;;1.70;;
69502;SDS011;56704;54.242;12.442;2024-02-26T13:08:37;4.05;;;1.30;;
69502;SDS011;56704;54.242;12.442;2024-02-26T13:11:04;2.90;;;1.03;;
69502;SDS011;56704;54.242;12.442;2024-02-26T13:13:31;4.57;;;1.60;;
69502;SDS011;56704;54.242;12.442;2024-02-26T13:16:01;4.13;;;1.63;;
69502;SDS011;56704;54.242;12.442;2024-02-26T13:18:29;4.03;;;1.08;;
69502;SDS011;56704;54.242;12.442;2024-02-26T13:21:05;3.45;;;1.30;;
69502;SDS011;56704;54.242;12.442;2024-02-26T13:23:33;3.40;;;1.00;;
69502;SDS011;56704;54.242;12.442;2024-02-26T13:26:01;3.70;;;1.33;;
69502;SDS011;56704;54.242;12.442;2024-02-26T13:28:28;3.30;;;1.20;;
69502;SDS011;56704;54.242;12.442;2024-02-26T13:30:55;3.22;;;1.13;;
69502;SDS011;56704;54.242;12.442;2024-02-26T13:33:22;3.92;;;1.20;;
69502;SDS011;56704;54.242;12.442;2024-02-26T13:35:49;3.40;;;1.17;;
69502;SDS011;56704;54.242;12.442;2024-02-26T13:38:16;3.00;;;1.10;;
69502;SDS011;56704;54.242;12.442;2024-02-26T13:40:42;3.75;;;1.33;;
69502;SDS011;56704;54.242;12.442;2024-02-26T13:43:10;3.20;;;1.30;;
69502;SDS011;56704;54.242;12.442;2024-02-26T13:45:37;3.65;;;1.50;;
69502;SDS011;56704;54.242;12.442;2024-02-26T13:48:05;4.07;;;1.17;;
69502;SDS011;56704;54.242;12.442;2024-02-26T13:50:35;5.28;;;1.60;;
69502;SDS011;56704;54.242;12.442;2024-02-26T13:53:01;5.72;;;1.60;;
69502;SDS011;56704;54.242;12.442;2024-02-26T13:55:29;3.97;;;1.30;;
69502;SDS011;56704;54.242;12.442;2024-02-26T13:57:57;2.40;;;0.80;;
69502;SDS011;56704;54.242;12.442;2024-02-26T14:00:27;3.67;;;1.17;;
69502;SDS011;56704;54.242;12.442;2024-02-26T14:02:54;3.65;;;1.30;;
69502;SDS011;56704;54.242;12.442;2024-02-26T14:05:20;3.47;;;1.10;;
69502;SDS011;56704;54.242;12.442;2024-02-26T14:07:47;3.65;;;1.35;;
69502;SDS011;56704;54.242;12.442;2024-02-26T14:10:13;4.55;;;1.40;;
69502;SDS011;56704;54.242;12.442;2024-02-26T14:12:41;3.20;;;1.07;;
69502;SDS011;56704;54.242;12.442;2024-02-26T14:15:08;3.25;;;1.35;;
69502;SDS011;56704;54.242;12.442;2024-02-26T14:17:38;3.88;;;1.63;;
69502;SDS011;56704;54.242;12.442;2024-02-26T14:20:05;3.35;;;1.27;;
69502;SDS011;56704;54.242;12.442;2024-02-26T14:22:32;3.38;;;1.38;;
69502;SDS011;56704;54.242;12.442;2024-02-26T14:24:59;3.67;;;1.10;;
69502;SDS011;56704;54.242;12.442;2024-02-26T14:27:26;3.35;;;1.20;;
69502;SDS011;56704;54.242;12.442;2024-02-26T14:29:52;3.05;;;1.10;;
69502;SDS011;56704;54.242;12.442;2024-02-26T14:32:20;2.92;;;1.30;;
69502;SDS011;56704;54.242;12.442;2024-02-26T14:34:48;3.33;;;1.17;;